Terminal Aerodrome Forecast
Issued by NWS

Current Version | Previous Version | Text Only | Print | Product List | Glossary Off
Versions: 1 2 3 4 5 6 7 8 9 10 11 12 13 14 15

000
FTUS41 KPBZ 291129
TAFMGW
TAF
KMGW 291129Z 2912/3012 21004KT P6SM BKN150
     FM291600 15004KT P6SM VCTS BKN060CB
     FM300000 00000KT P6SM BKN050=

USA.gov is the U.S. government's official web portal to all federal, state and local government web resources and services.